createdAt,value
2023-02-04T00:00:24.258Z,8.52
2023-02-04T00:02:52.755Z,8.49
2023-02-04T00:05:22.017Z,8.50
2023-02-04T00:07:49.741Z,8.50
2023-02-04T00:10:18.891Z,8.51
2023-02-04T00:12:46.601Z,8.49
2023-02-04T00:15:14.301Z,8.52
2023-02-04T00:17:42.005Z,8.49
2023-02-04T00:20:10.613Z,8.51
2023-02-04T00:22:39.728Z,8.51
2023-02-04T00:25:08.746Z,8.50
2023-02-04T00:27:36.518Z,8.51
2023-02-04T00:30:04.391Z,8.49
2023-02-04T00:32:32.080Z,8.52
2023-02-04T00:34:59.766Z,8.52
2023-02-04T00:37:27.521Z,8.51
2023-02-04T00:39:56.655Z,8.52
2023-02-04T00:42:24.497Z,8.51
2023-02-04T00:44:52.314Z,8.50
2023-02-04T00:47:20.027Z,8.48
2023-02-04T00:49:47.798Z,8.47
2023-02-04T00:52:15.474Z,8.47
2023-02-04T00:54:43.132Z,8.46
2023-02-04T00:57:12.232Z,8.45
2023-02-04T00:59:39.867Z,8.45
2023-02-04T01:02:07.660Z,8.44
2023-02-04T01:04:35.456Z,8.40
2023-02-04T01:07:03.211Z,8.43
2023-02-04T01:09:30.932Z,8.41
2023-02-04T01:11:58.602Z,8.44
2023-02-04T01:14:27.709Z,8.44
2023-02-04T01:16:55.375Z,8.45
2023-02-04T01:19:23.076Z,8.46
2023-02-04T01:21:50.751Z,8.42
2023-02-04T01:24:18.370Z,8.42
2023-02-04T01:26:46.026Z,8.41
2023-02-04T01:29:13.782Z,8.38
2023-02-04T01:31:42.889Z,8.38
2023-02-04T01:34:10.618Z,8.38
2023-02-04T01:36:38.327Z,8.37
2023-02-04T01:39:06.423Z,8.35
2023-02-04T01:41:34.158Z,8.36
2023-02-04T01:44:01.823Z,8.34
2023-02-04T01:46:29.548Z,8.40
2023-02-04T01:48:58.647Z,8.39
2023-02-04T01:51:28.784Z,8.43
2023-02-04T01:53:56.940Z,8.41
2023-02-04T01:56:26.813Z,8.37
2023-02-04T01:58:55.896Z,8.37
2023-02-04T02:01:37.675Z,8.35
2023-02-04T02:04:06.895Z,8.38
2023-02-04T02:06:35.025Z,8.39
2023-02-04T02:09:03.060Z,8.40
2023-02-04T02:11:30.946Z,8.37
2023-02-04T02:13:58.648Z,8.35
2023-02-04T02:16:26.404Z,8.37
2023-02-04T02:18:54.574Z,8.37
2023-02-04T02:21:32.973Z,8.34
2023-02-04T02:24:03.464Z,8.35
2023-02-04T02:26:31.131Z,8.33
2023-02-04T02:28:58.860Z,8.32
2023-02-04T02:31:26.771Z,8.28
2023-02-04T02:33:54.527Z,8.34
2023-02-04T02:36:23.661Z,8.35
2023-02-04T02:38:51.428Z,8.37
2023-02-04T02:41:20.532Z,8.38
2023-02-04T02:43:48.274Z,8.38
2023-02-04T02:46:15.978Z,8.35
2023-02-04T02:48:43.729Z,8.35
2023-02-04T02:51:11.414Z,8.37
2023-02-04T02:53:39.106Z,8.37
2023-02-04T02:56:07.063Z,8.37
2023-02-04T02:58:37.317Z,8.36
2023-02-04T03:01:07.065Z,8.39
2023-02-04T03:03:36.555Z,8.38
2023-02-04T03:06:07.882Z,8.38
2023-02-04T03:08:35.883Z,8.36
2023-02-04T03:11:03.642Z,8.34
2023-02-04T03:13:31.549Z,8.34
2023-02-04T03:16:00.951Z,8.35
2023-02-04T03:18:28.646Z,8.35
2023-02-04T03:20:56.455Z,8.37
2023-02-04T03:23:24.266Z,8.33
2023-02-04T03:25:53.220Z,8.38
2023-02-04T03:28:21.131Z,8.38
2023-02-04T03:30:53.689Z,8.37
2023-02-04T03:33:23.273Z,8.39
2023-02-04T03:35:51.553Z,8.38
2023-02-04T03:38:20.010Z,8.38
2023-02-04T03:40:47.809Z,8.39
2023-02-04T03:43:15.473Z,8.37
2023-02-04T03:45:45.740Z,8.35
2023-02-04T03:48:13.737Z,8.33
2023-02-04T03:50:43.304Z,8.35
2023-02-04T03:53:11.076Z,8.35
2023-02-04T03:55:38.833Z,8.37
2023-02-04T03:58:06.931Z,8.35
2023-02-04T04:00:34.651Z,8.36
2023-02-04T04:03:02.464Z,8.36
2023-02-04T04:05:30.267Z,8.39
2023-02-04T04:07:59.510Z,8.39
2023-02-04T04:10:29.360Z,8.38
2023-02-04T04:12:57.381Z,8.37
2023-02-04T04:15:25.307Z,8.38
2023-02-04T04:17:53.030Z,8.38
2023-02-04T04:20:21.054Z,8.37
2023-02-04T04:22:48.687Z,8.35
2023-02-04T04:25:17.943Z,8.33
2023-02-04T04:27:45.633Z,8.32
2023-02-04T04:30:13.634Z,8.33
2023-02-04T04:32:41.358Z,8.34
2023-02-04T04:35:09.451Z,8.33
2023-02-04T04:37:37.183Z,8.32
2023-02-04T04:40:05.419Z,8.35
2023-02-04T04:42:34.439Z,8.37
2023-02-04T04:45:02.083Z,8.35
2023-02-04T04:47:29.747Z,8.34
2023-02-04T04:49:57.412Z,8.32
2023-02-04T04:52:25.121Z,8.27
2023-02-04T04:54:52.807Z,8.32
2023-02-04T04:57:20.505Z,8.31
2023-02-04T04:59:49.644Z,8.31
2023-02-04T05:02:17.322Z,8.29
2023-02-04T05:04:47.037Z,8.29
2023-02-04T05:07:14.815Z,8.28
2023-02-04T05:09:42.599Z,8.30
2023-02-04T05:12:10.332Z,8.28
2023-02-04T05:14:38.836Z,8.30
2023-02-04T05:17:08.192Z,8.31
2023-02-04T05:19:35.918Z,8.30
2023-02-04T05:22:03.574Z,8.28
2023-02-04T05:24:31.542Z,8.31
2023-02-04T05:26:59.323Z,8.33
2023-02-04T05:29:27.054Z,8.29
2023-02-04T05:31:54.831Z,8.32
2023-02-04T05:34:23.886Z,8.31
2023-02-04T05:36:51.647Z,8.30
2023-02-04T05:39:19.356Z,8.30
2023-02-04T05:41:47.082Z,8.29
2023-02-04T05:44:14.820Z,8.29
2023-02-04T05:46:42.652Z,8.30
2023-02-04T05:49:10.443Z,8.29
2023-02-04T05:51:39.573Z,8.32
2023-02-04T05:54:07.276Z,8.31
2023-02-04T05:56:34.954Z,8.33
2023-02-04T05:59:02.584Z,8.34
2023-02-04T06:01:30.311Z,8.35
2023-02-04T06:03:58.019Z,8.36
2023-02-04T06:06:25.833Z,8.37
2023-02-04T06:08:54.945Z,8.37
2023-02-04T06:11:22.695Z,8.36
2023-02-04T06:13:50.418Z,8.37
2023-02-04T06:16:18.119Z,8.37
2023-02-04T06:18:45.835Z,8.35
2023-02-04T06:21:13.539Z,8.34
2023-02-04T06:23:41.183Z,8.34
2023-02-04T06:26:10.356Z,8.31
2023-02-04T06:28:38.026Z,8.32
2023-02-04T06:31:06.145Z,8.32
2023-02-04T06:33:33.872Z,8.27
2023-02-04T06:36:01.644Z,8.27
2023-02-04T06:38:29.370Z,8.30
2023-02-04T06:40:57.347Z,8.28
2023-02-04T06:43:27.617Z,8.29
2023-02-04T06:45:55.432Z,8.29
2023-02-04T06:48:23.194Z,8.28
2023-02-04T06:50:50.919Z,8.29
2023-02-04T06:53:18.634Z,8.29
2023-02-04T06:55:46.325Z,8.28
2023-02-04T06:58:14.095Z,8.29
2023-02-04T07:00:43.219Z,8.28
2023-02-04T07:03:10.941Z,8.28
2023-02-04T07:05:38.633Z,8.29
2023-02-04T07:08:06.654Z,8.29
2023-02-04T07:10:34.666Z,8.28
2023-02-04T07:13:02.528Z,8.28
2023-02-04T07:15:31.510Z,8.26
2023-02-04T07:18:00.791Z,8.27
2023-02-04T07:20:28.559Z,8.27
2023-02-04T07:22:56.260Z,8.28
2023-02-04T07:25:24.030Z,8.28
2023-02-04T07:27:51.752Z,8.29
2023-02-04T07:30:19.552Z,8.29
2023-02-04T07:32:47.244Z,8.26
2023-02-04T07:35:17.647Z,8.27
2023-02-04T07:37:45.585Z,8.26
2023-02-04T07:40:13.898Z,8.27
2023-02-04T07:42:41.596Z,8.28
2023-02-04T07:45:10.072Z,8.27
2023-02-04T07:47:37.769Z,8.27
2023-02-04T07:50:05.977Z,8.27
2023-02-04T07:52:35.042Z,8.27
2023-02-04T07:55:02.756Z,8.28
2023-02-04T07:57:30.496Z,8.27
2023-02-04T07:59:59.159Z,8.28
2023-02-04T08:02:27.009Z,8.29
2023-02-04T08:04:54.795Z,8.30
2023-02-04T08:07:22.544Z,8.33
2023-02-04T08:09:51.632Z,8.32
2023-02-04T08:12:19.433Z,8.33
2023-02-04T08:14:47.116Z,8.33
2023-02-04T08:17:14.791Z,8.34
2023-02-04T08:19:42.520Z,8.33
2023-02-04T08:22:11.584Z,8.34
2023-02-04T08:24:39.249Z,8.34
2023-02-04T08:27:08.328Z,8.35
2023-02-04T08:29:36.019Z,8.37
2023-02-04T08:32:04.085Z,8.35
2023-02-04T08:34:32.347Z,8.38
2023-02-04T08:37:00.047Z,8.40
2023-02-04T08:39:27.754Z,8.40
2023-02-04T08:41:55.432Z,8.41
2023-02-04T08:44:24.550Z,8.44
2023-02-04T08:46:52.355Z,8.46
2023-02-04T08:49:20.023Z,8.48
2023-02-04T08:51:47.801Z,8.49
2023-02-04T08:54:15.546Z,8.47
2023-02-04T08:56:43.254Z,8.52
2023-02-04T08:59:10.945Z,8.56
2023-02-04T09:01:40.088Z,8.57
2023-02-04T09:04:07.785Z,8.60
2023-02-04T09:06:35.558Z,8.62
2023-02-04T09:09:03.243Z,8.64
2023-02-04T09:11:30.942Z,8.66
2023-02-04T09:13:58.607Z,8.67
2023-02-04T09:16:26.428Z,8.69
2023-02-04T09:18:55.953Z,8.71
2023-02-04T09:21:23.656Z,8.73
2023-02-04T09:23:51.378Z,8.74
2023-02-04T09:26:19.120Z,8.76
2023-02-04T09:28:47.904Z,8.76
2023-02-04T09:31:16.061Z,8.81
2023-02-04T09:33:43.871Z,8.75
2023-02-04T09:36:13.591Z,8.78
2023-02-04T09:38:41.313Z,8.81
2023-02-04T09:41:11.777Z,8.86
2023-02-04T09:43:41.920Z,8.88
2023-02-04T09:46:10.813Z,8.89
2023-02-04T09:48:38.796Z,8.96
2023-02-04T09:51:08.261Z,8.97
2023-02-04T09:53:37.920Z,9.01
2023-02-04T09:56:06.327Z,9.05
2023-02-04T09:58:35.051Z,9.07
2023-02-04T10:01:10.461Z,9.09
2023-02-04T10:03:38.261Z,9.09
2023-02-04T10:06:06.464Z,9.10
2023-02-04T10:08:34.901Z,9.11
2023-02-04T10:11:04.187Z,9.09
2023-02-04T10:13:33.262Z,9.11
2023-02-04T10:16:01.225Z,9.12
2023-02-04T10:18:30.612Z,9.14
2023-02-04T10:20:59.192Z,9.16
2023-02-04T10:23:26.990Z,9.19
2023-02-04T10:25:54.702Z,9.18
2023-02-04T10:28:34.684Z,9.24
2023-02-04T10:31:02.751Z,9.25
2023-02-04T10:33:31.835Z,9.22
2023-02-04T10:35:59.828Z,9.22
2023-02-04T10:38:27.801Z,9.19
2023-02-04T10:41:02.547Z,9.23
2023-02-04T10:43:31.786Z,9.27
2023-02-04T10:46:01.035Z,9.27
2023-02-04T10:48:30.123Z,9.28
2023-02-04T10:50:58.459Z,9.32
2023-02-04T10:53:44.078Z,9.32
2023-02-04T10:56:17.715Z,9.34
2023-02-04T10:58:46.940Z,9.36
2023-02-04T11:01:16.698Z,9.39
2023-02-04T11:03:47.772Z,9.42
2023-02-04T11:06:20.527Z,9.46
2023-02-04T11:08:48.552Z,9.49
2023-02-04T11:11:18.826Z,9.48
2023-02-04T11:14:02.076Z,9.50
2023-02-04T11:16:32.850Z,9.51
2023-02-04T11:19:02.554Z,9.54
2023-02-04T11:21:42.903Z,9.58
2023-02-04T11:24:25.477Z,9.60
2023-02-04T11:26:54.606Z,9.64
2023-02-04T11:29:34.876Z,9.65
2023-02-04T11:32:05.532Z,9.66
2023-02-04T11:34:46.795Z,9.65
2023-02-04T11:37:36.757Z,9.66
2023-02-04T11:40:18.464Z,9.67
2023-02-04T11:42:46.263Z,9.80
2023-02-04T11:45:17.976Z,9.87
2023-02-04T11:47:45.832Z,9.97
2023-02-04T11:50:17.441Z,10.01
2023-02-04T11:52:45.148Z,10.00
2023-02-04T11:55:13.731Z,9.97
2023-02-04T11:57:42.274Z,9.92
2023-02-04T12:00:16.537Z,9.90
2023-02-04T12:02:46.329Z,9.87
2023-02-04T12:05:15.842Z,9.84
2023-02-04T12:07:44.086Z,9.82
2023-02-04T12:10:14.931Z,9.79
2023-02-04T12:12:44.944Z,9.74
2023-02-04T12:15:19.612Z,9.74
2023-02-04T12:17:47.459Z,9.71
2023-02-04T12:20:15.793Z,9.70
2023-02-04T12:22:43.778Z,9.71
2023-02-04T12:25:16.792Z,9.71
2023-02-04T12:27:44.630Z,9.68
2023-02-04T12:30:13.551Z,9.71
2023-02-04T12:32:42.721Z,9.70
2023-02-04T12:35:10.467Z,9.67
2023-02-04T12:37:38.200Z,9.65
2023-02-04T12:40:06.915Z,9.66
2023-02-04T12:42:34.677Z,9.61
2023-02-04T12:45:02.383Z,9.62
2023-02-04T12:47:30.110Z,9.60
2023-02-04T12:49:59.200Z,9.57
2023-02-04T12:52:26.986Z,9.57
2023-02-04T12:54:54.705Z,9.55
2023-02-04T12:57:22.419Z,9.52
2023-02-04T12:59:50.275Z,9.52
2023-02-04T13:02:18.028Z,9.54
2023-02-04T13:04:45.907Z,9.52
2023-02-04T13:07:15.005Z,9.54
2023-02-04T13:09:42.729Z,9.55
2023-02-04T13:12:10.444Z,9.53
2023-02-04T13:14:38.181Z,9.56
2023-02-04T13:17:05.865Z,9.56
2023-02-04T13:19:33.628Z,9.57
2023-02-04T13:22:01.583Z,9.59
2023-02-04T13:24:30.845Z,9.63
2023-02-04T13:26:58.570Z,9.78
2023-02-04T13:29:26.705Z,9.88
2023-02-04T13:31:54.552Z,9.97
2023-02-04T13:34:22.333Z,10.09
2023-02-04T13:36:50.074Z,10.17
2023-02-04T13:39:17.829Z,10.28
2023-02-04T13:41:47.338Z,10.35
2023-02-04T13:44:15.052Z,10.45
2023-02-04T13:46:42.849Z,10.49
2023-02-04T13:49:10.562Z,10.58
2023-02-04T13:51:38.331Z,10.64
2023-02-04T13:54:06.156Z,10.66
2023-02-04T13:56:33.968Z,10.67
2023-02-04T13:59:03.085Z,10.65
2023-02-04T14:01:31.346Z,10.63
2023-02-04T14:03:59.127Z,10.58
2023-02-04T14:06:33.281Z,10.55
2023-02-04T14:09:01.287Z,10.53
2023-02-04T14:11:29.644Z,10.48
2023-02-04T14:13:57.640Z,10.42
2023-02-04T14:16:26.952Z,10.40
2023-02-04T14:18:54.810Z,10.40
2023-02-04T14:21:23.216Z,10.40
2023-02-04T14:23:51.030Z,10.37
2023-02-04T14:26:18.766Z,10.33
2023-02-04T14:28:46.640Z,10.33
2023-02-04T14:31:14.373Z,10.27
2023-02-04T14:33:43.664Z,10.27
2023-02-04T14:36:11.731Z,10.24
2023-02-04T14:38:40.462Z,10.22
2023-02-04T14:41:08.241Z,10.24
2023-02-04T14:43:37.294Z,10.17
2023-02-04T14:46:06.024Z,10.17
2023-02-04T14:48:34.317Z,10.21
2023-02-04T14:51:03.410Z,10.21
2023-02-04T14:53:31.482Z,10.22
2023-02-04T14:55:59.191Z,10.16
2023-02-04T14:58:28.050Z,10.14
2023-02-04T15:00:55.989Z,10.12
2023-02-04T15:03:23.963Z,10.07
2023-02-04T15:05:51.810Z,10.09
2023-02-04T15:08:21.058Z,10.10
2023-02-04T15:10:48.817Z,10.11
2023-02-04T15:13:16.666Z,10.11
2023-02-04T15:15:44.426Z,10.11
2023-02-04T15:18:13.904Z,10.10
2023-02-04T15:20:41.588Z,10.13
2023-02-04T15:23:13.020Z,10.09
2023-02-04T15:25:42.256Z,10.09
2023-02-04T15:28:12.036Z,10.08
2023-02-04T15:30:40.151Z,10.02
2023-02-04T15:33:07.935Z,10.02
2023-02-04T15:35:35.696Z,10.00
2023-02-04T15:38:03.351Z,9.96
2023-02-04T15:40:31.541Z,9.89
2023-02-04T15:43:01.061Z,9.84
2023-02-04T15:45:28.775Z,9.75
2023-02-04T15:47:56.599Z,9.77
2023-02-04T15:50:24.406Z,9.76
2023-02-04T15:52:52.133Z,9.75
2023-02-04T15:55:19.868Z,9.75
2023-02-04T15:57:47.502Z,9.74
2023-02-04T16:00:17.571Z,9.72
2023-02-04T16:02:45.466Z,9.74
2023-02-04T16:05:13.247Z,9.71
2023-02-04T16:07:41.120Z,9.69
2023-02-04T16:10:08.988Z,9.69
2023-02-04T16:12:36.731Z,9.67
2023-02-04T16:15:04.755Z,9.62
2023-02-04T16:17:33.931Z,9.64
2023-02-04T16:20:01.790Z,9.63
2023-02-04T16:22:29.653Z,9.59
2023-02-04T16:24:57.359Z,9.55
2023-02-04T16:27:25.459Z,9.54
2023-02-04T16:29:54.411Z,9.50
2023-02-04T16:32:23.094Z,9.45
2023-02-04T16:34:52.702Z,9.44
2023-02-04T16:37:20.599Z,9.42
2023-02-04T16:39:49.009Z,9.39
2023-02-04T16:42:16.810Z,9.36
2023-02-04T16:44:44.759Z,9.35
2023-02-04T16:47:12.732Z,9.33
2023-02-04T16:49:40.552Z,9.31
2023-02-04T16:52:09.620Z,9.29
2023-02-04T16:54:37.409Z,9.25
2023-02-04T16:57:05.274Z,9.20
2023-02-04T16:59:35.648Z,9.16
2023-02-04T17:02:03.422Z,9.12
2023-02-04T17:04:32.350Z,9.10
2023-02-04T17:07:00.652Z,9.08
2023-02-04T17:11:27.830Z,9.02
2023-02-04T17:13:55.563Z,9.01
2023-02-04T17:16:23.374Z,8.98
2023-02-04T17:18:51.260Z,8.97
2023-02-04T17:21:18.993Z,8.96
2023-02-04T17:23:46.707Z,8.91
2023-02-04T17:26:16.001Z,8.90
2023-02-04T17:28:43.700Z,8.85
2023-02-04T17:31:11.628Z,8.84
2023-02-04T17:33:39.444Z,8.80
2023-02-04T17:36:07.920Z,8.79
2023-02-04T17:39:40.305Z,8.75
2023-02-04T17:42:07.974Z,8.75
2023-02-04T17:44:35.636Z,8.73
2023-02-04T17:47:04.166Z,8.73
2023-02-04T17:49:33.654Z,8.73
2023-02-04T17:52:02.019Z,8.72
2023-02-04T17:54:29.831Z,8.73
2023-02-04T17:58:27.044Z,8.74
2023-02-04T18:00:57.723Z,8.72
2023-02-04T18:03:28.352Z,8.65
2023-02-04T18:05:57.298Z,8.65
2023-02-04T18:08:26.252Z,8.69
2023-02-04T18:12:30.653Z,8.69
2023-02-04T18:14:59.953Z,8.69
2023-02-04T18:17:29.470Z,8.67
2023-02-04T18:19:57.253Z,8.68
2023-02-04T18:22:28.376Z,8.67
2023-02-04T18:24:56.239Z,8.66
2023-02-04T18:27:25.341Z,8.64
2023-02-04T18:29:56.507Z,8.60
2023-02-04T18:32:25.579Z,8.60
2023-02-04T18:34:54.924Z,8.56
2023-02-04T18:37:30.636Z,8.54
2023-02-04T18:40:02.014Z,8.58
2023-02-04T18:42:29.703Z,8.58
2023-02-04T18:44:58.932Z,8.57
2023-02-04T18:47:31.573Z,8.56
2023-02-04T18:50:01.002Z,8.50
2023-02-04T18:52:30.313Z,8.54
2023-02-04T18:54:59.013Z,8.51
2023-02-04T18:57:35.758Z,8.47
2023-02-04T19:00:27.645Z,8.50
2023-02-04T19:02:57.315Z,8.47
2023-02-04T19:05:33.654Z,8.47
2023-02-04T19:08:28.107Z,8.43
2023-02-04T19:10:57.334Z,8.39
2023-02-04T19:13:27.506Z,8.35
2023-02-04T19:16:02.555Z,8.30
2023-02-04T19:18:34.404Z,8.28
2023-02-04T19:21:17.999Z,8.24
2023-02-04T19:23:45.984Z,8.22
2023-02-04T19:26:29.824Z,8.19
2023-02-04T19:28:57.938Z,8.16
2023-02-04T19:31:30.838Z,8.13
2023-02-04T19:33:58.568Z,8.09
2023-02-04T19:36:31.429Z,8.09
2023-02-04T19:39:01.243Z,8.03
2023-02-04T19:41:32.349Z,8.01
2023-02-04T19:44:29.250Z,7.97
2023-02-04T19:47:18.971Z,7.88
2023-02-04T19:49:46.697Z,7.89
2023-02-04T19:52:25.677Z,7.87
2023-02-04T19:54:53.370Z,7.86
2023-02-04T19:57:24.463Z,7.84
2023-02-04T19:59:52.913Z,7.86
2023-02-04T20:02:31.521Z,7.85
2023-02-04T20:04:59.291Z,7.90
2023-02-04T20:07:28.477Z,7.87
2023-02-04T20:10:04.578Z,7.88
2023-02-04T20:12:33.829Z,7.91
2023-02-04T20:15:02.392Z,7.93
2023-02-04T20:17:40.562Z,7.93
2023-02-04T20:20:23.832Z,7.97
2023-02-04T20:22:53.533Z,7.97
2023-02-04T20:25:35.860Z,7.98
2023-02-04T20:28:12.085Z,7.95
2023-02-04T20:30:43.000Z,8.00
2023-02-04T20:33:48.417Z,7.97
2023-02-04T20:36:43.139Z,8.01
2023-02-04T20:39:33.782Z,7.97
2023-02-04T20:42:22.043Z,8.00
2023-02-04T20:44:49.836Z,8.02
2023-02-04T20:47:19.578Z,8.01
2023-02-04T20:49:56.389Z,8.02
2023-02-04T20:53:03.513Z,8.01
2023-02-04T20:55:33.224Z,8.01
2023-02-04T20:58:15.864Z,8.02
2023-02-04T21:00:44.352Z,8.04
2023-02-04T21:03:22.253Z,8.02
2023-02-04T21:05:52.503Z,8.03
2023-02-04T21:08:29.641Z,8.03
2023-02-04T21:10:59.838Z,8.04
2023-02-04T21:13:27.727Z,8.05
2023-02-04T21:15:55.668Z,8.03
2023-02-04T21:18:23.402Z,8.05
2023-02-04T21:20:52.563Z,8.04
2023-02-04T21:23:20.735Z,8.00
2023-02-04T21:25:48.560Z,8.03
2023-02-04T21:28:16.572Z,8.03
2023-02-04T21:30:44.346Z,8.02
2023-02-04T21:33:12.113Z,8.00
2023-02-04T21:35:40.199Z,8.00
2023-02-04T21:38:09.479Z,8.01
2023-02-04T21:40:38.793Z,7.98
2023-02-04T21:43:08.189Z,7.99
2023-02-04T21:45:36.946Z,7.94
2023-02-04T21:48:05.513Z,7.92
2023-02-04T21:50:34.000Z,7.91
2023-02-04T21:53:01.703Z,7.91
2023-02-04T21:55:31.103Z,7.87
2023-02-04T21:57:58.995Z,7.91
2023-02-04T22:00:26.821Z,7.91
2023-02-04T22:02:55.080Z,7.92
2023-02-04T22:05:23.439Z,7.92
2023-02-04T22:07:51.461Z,7.92
2023-02-04T22:10:21.120Z,7.93
2023-02-04T22:12:50.409Z,7.94
2023-02-04T22:15:18.334Z,7.94
2023-02-04T22:17:46.421Z,7.94
2023-02-04T22:20:15.593Z,7.94
2023-02-04T22:22:44.331Z,7.96
2023-02-04T22:25:12.656Z,7.96
2023-02-04T22:27:40.483Z,7.97
2023-02-04T22:30:12.454Z,7.97
2023-02-04T22:32:40.499Z,7.98
2023-02-04T22:35:09.985Z,7.98
2023-02-04T22:37:37.841Z,7.98
2023-02-04T22:40:06.275Z,7.96
2023-02-04T22:42:34.005Z,7.96
2023-02-04T22:45:02.530Z,7.95
2023-02-04T22:47:31.979Z,7.96
2023-02-04T22:49:59.660Z,7.97
2023-02-04T22:52:27.444Z,7.96
2023-02-04T22:54:55.178Z,7.97
2023-02-04T22:57:22.821Z,7.98
2023-02-04T22:59:50.497Z,7.98
2023-02-04T23:02:18.347Z,7.96
2023-02-04T23:04:47.536Z,7.92
2023-02-04T23:07:15.246Z,7.95
2023-02-04T23:09:42.987Z,7.94
2023-02-04T23:12:13.821Z,7.92
2023-02-04T23:14:42.402Z,7.90
2023-02-04T23:17:10.455Z,7.88
2023-02-04T23:19:38.421Z,7.87
2023-02-04T23:22:07.879Z,7.86
2023-02-04T23:24:35.777Z,7.87
2023-02-04T23:27:04.160Z,7.87
2023-02-04T23:29:35.153Z,7.87
2023-02-04T23:32:03.378Z,7.87
2023-02-04T23:34:31.268Z,7.83
2023-02-04T23:36:58.935Z,7.86
2023-02-04T23:39:28.266Z,7.85
2023-02-04T23:41:56.013Z,7.84
2023-02-04T23:44:23.824Z,7.84
2023-02-04T23:46:51.812Z,7.83
2023-02-04T23:49:19.540Z,7.84
2023-02-04T23:51:47.292Z,7.82
2023-02-04T23:54:15.013Z,7.83
2023-02-04T23:56:44.135Z,7.84
2023-02-04T23:59:11.863Z,7.83
